createdAt,value
2018-12-19T00:00:48.963Z,98.01
2018-12-19T00:01:48.950Z,98.01
2018-12-19T00:02:48.931Z,98.1
2018-12-19T00:03:48.914Z,97.72
2018-12-19T00:04:48.897Z,97.91
2018-12-19T00:05:48.879Z,98.01
2018-12-19T00:06:48.865Z,98.01
2018-12-19T00:07:48.847Z,97.82
2018-12-19T00:08:48.829Z,97.82
2018-12-19T00:09:48.812Z,97.82
2018-12-19T00:10:48.797Z,97.53
2018-12-19T00:11:48.780Z,98.01
2018-12-19T00:12:48.770Z,98.1
2018-12-19T00:13:48.753Z,97.91
2018-12-19T00:14:48.729Z,98.1
2018-12-19T00:15:48.712Z,97.82
2018-12-19T00:16:48.704Z,98.01
2018-12-19T00:17:48.680Z,97.72
2018-12-19T00:18:48.661Z,97.63
2018-12-19T00:19:48.647Z,97.72
2018-12-19T00:20:48.629Z,97.53
2018-12-19T00:21:48.613Z,97.91
2018-12-19T00:22:48.597Z,97.82
2018-12-19T00:23:48.578Z,97.82
2018-12-19T00:24:48.562Z,97.82
2018-12-19T00:25:48.549Z,98.01
2018-12-19T00:26:48.531Z,97.72
2018-12-19T00:27:48.512Z,97.82
2018-12-19T00:28:48.495Z,97.82
2018-12-19T00:29:48.477Z,97.53
2018-12-19T00:30:48.460Z,97.82
2018-12-19T00:31:48.443Z,97.82
2018-12-19T00:32:48.427Z,98.01
2018-12-19T00:33:48.411Z,97.72
2018-12-19T00:34:48.393Z,97.72
2018-12-19T00:35:48.376Z,97.82
2018-12-19T00:36:48.359Z,97.72
2018-12-19T00:37:48.342Z,97.82
2018-12-19T00:38:48.327Z,98.01
2018-12-19T00:39:48.312Z,97.53
2018-12-19T00:40:48.290Z,97.82
2018-12-19T00:41:48.284Z,97.63
2018-12-19T00:42:48.262Z,97.63
2018-12-19T00:43:48.242Z,97.63
2018-12-19T00:44:48.227Z,97.72
2018-12-19T00:45:48.208Z,97.82
2018-12-19T00:46:48.192Z,97.72
2018-12-19T00:47:48.177Z,97.63
2018-12-19T00:48:48.158Z,97.82
2018-12-19T00:49:48.624Z,97.53
2018-12-19T00:50:48.124Z,97.63
2018-12-19T00:51:48.110Z,97.82
2018-12-19T00:52:48.091Z,97.82
2018-12-19T00:53:48.076Z,97.63
2018-12-19T00:54:48.057Z,97.63
2018-12-19T00:55:48.039Z,97.82
2018-12-19T00:56:48.022Z,97.63
2018-12-19T00:57:48.004Z,97.63
2018-12-19T00:58:47.989Z,97.91
2018-12-19T00:59:47.973Z,97.77
2018-12-19T01:00:47.955Z,97.82
2018-12-19T01:01:47.939Z,97.82
2018-12-19T01:02:47.921Z,97.91
2018-12-19T01:03:47.906Z,98.01
2018-12-19T01:04:50.636Z,97.53
2018-12-19T01:05:47.871Z,97.63
2018-12-19T01:06:47.857Z,97.82
2018-12-19T01:07:47.842Z,97.67
2018-12-19T01:08:47.822Z,97.58
2018-12-19T01:09:47.807Z,97.63
2018-12-19T01:10:47.793Z,97.77
2018-12-19T01:11:47.772Z,97.63
2018-12-19T01:12:47.756Z,97.67
2018-12-19T01:13:47.738Z,97.96
2018-12-19T01:14:47.721Z,97.96
2018-12-19T01:15:47.703Z,97.77
2018-12-19T01:16:47.689Z,97.67
2018-12-19T01:17:47.669Z,97.96
2018-12-19T01:18:47.653Z,97.72
2018-12-19T01:19:47.638Z,97.96
2018-12-19T01:20:47.622Z,98.14
2018-12-19T01:21:47.607Z,98.05
2018-12-19T01:22:47.585Z,97.67
2018-12-19T01:23:47.567Z,98.14
2018-12-19T01:24:47.550Z,97.86
2018-12-19T01:25:47.538Z,98.24
2018-12-19T01:26:47.519Z,97.96
2018-12-19T01:27:47.502Z,97.86
2018-12-19T01:28:47.484Z,97.96
2018-12-19T01:29:47.467Z,97.86
2018-12-19T01:30:47.454Z,97.96
2018-12-19T01:31:47.432Z,97.86
2018-12-19T01:32:47.417Z,97.96
2018-12-19T01:33:47.397Z,98.05
2018-12-19T01:34:47.383Z,97.96
2018-12-19T01:35:47.366Z,97.86
2018-12-19T01:36:47.359Z,97.86
2018-12-19T01:37:47.332Z,98.05
2018-12-19T01:38:47.319Z,97.96
2018-12-19T01:39:47.299Z,97.86
2018-12-19T01:40:47.281Z,97.96
2018-12-19T01:41:47.266Z,98.05
2018-12-19T01:42:47.246Z,97.77
2018-12-19T01:43:47.232Z,97.77
2018-12-19T01:44:47.212Z,97.77
2018-12-19T01:45:47.200Z,97.96
2018-12-19T01:46:47.177Z,98.05
2018-12-19T01:47:47.161Z,98.1
2018-12-19T01:48:47.148Z,97.86
2018-12-19T01:49:47.128Z,98.05
2018-12-19T01:50:47.111Z,97.96
2018-12-19T01:51:47.093Z,97.96
2018-12-19T01:52:47.075Z,97.86
2018-12-19T01:53:47.056Z,98.14
2018-12-19T01:54:47.096Z,97.96
2018-12-19T01:55:47.025Z,98.14
2018-12-19T01:56:47.008Z,98.05
2018-12-19T01:57:46.996Z,97.77
2018-12-19T01:58:46.975Z,97.96
2018-12-19T01:59:46.963Z,98.05
2018-12-19T02:00:46.946Z,98.05
2018-12-19T02:01:46.924Z,97.96
2018-12-19T02:02:46.906Z,98.05
2018-12-19T02:03:46.888Z,98.05
2018-12-19T02:04:46.872Z,98.05
2018-12-19T02:05:46.856Z,97.58
2018-12-19T02:06:46.840Z,98.05
2018-12-19T02:07:46.828Z,98.05
2018-12-19T02:08:46.806Z,97.77
2018-12-19T02:09:46.789Z,97.86
2018-12-19T02:10:46.772Z,97.86
2018-12-19T02:11:46.755Z,98.05
2018-12-19T02:12:46.737Z,98.05
2018-12-19T02:13:46.722Z,97.77
2018-12-19T02:14:46.706Z,97.86
2018-12-19T02:15:46.688Z,97.77
2018-12-19T02:16:46.668Z,97.96
2018-12-19T02:17:46.655Z,97.86
2018-12-19T02:18:46.635Z,98.05
2018-12-19T02:19:46.617Z,98.05
2018-12-19T02:20:46.599Z,98.05
2018-12-19T02:21:46.583Z,98.05
2018-12-19T02:22:46.570Z,98.05
2018-12-19T02:23:46.559Z,98.05
2018-12-19T02:24:46.534Z,97.86
2018-12-19T02:25:46.515Z,97.86
2018-12-19T02:26:46.499Z,97.49
2018-12-19T02:27:46.483Z,97.39
2018-12-19T02:28:46.466Z,97.86
2018-12-19T02:29:46.447Z,97.77
2018-12-19T02:30:46.430Z,97.67
2018-12-19T02:31:46.419Z,97.77
2018-12-19T02:32:46.402Z,97.58
2018-12-19T02:33:46.381Z,97.77
2018-12-19T02:34:46.366Z,97.77
2018-12-19T02:35:46.347Z,97.58
2018-12-19T02:36:46.330Z,97.58
2018-12-19T02:37:46.312Z,97.49
2018-12-19T02:38:46.317Z,97.58
2018-12-19T02:39:46.283Z,97.63
2018-12-19T02:40:46.271Z,97.86
2018-12-19T02:41:46.245Z,97.77
2018-12-19T02:42:46.251Z,97.67
2018-12-19T02:43:46.231Z,97.72
2018-12-19T02:44:46.197Z,97.77
2018-12-19T02:45:46.177Z,97.58
2018-12-19T02:46:46.160Z,97.77
2018-12-19T02:47:46.143Z,97.58
2018-12-19T02:48:46.127Z,97.58
2018-12-19T02:49:46.107Z,97.58
2018-12-19T02:50:46.093Z,97.82
2018-12-19T02:51:46.075Z,97.72
2018-12-19T02:52:46.056Z,97.67
2018-12-19T02:53:46.040Z,98.01
2018-12-19T02:54:46.026Z,97.44
2018-12-19T02:55:46.009Z,97.72
2018-12-19T02:56:45.990Z,97.67
2018-12-19T02:57:45.976Z,97.72
2018-12-19T02:58:45.957Z,97.67
2018-12-19T02:59:45.937Z,97.49
2018-12-19T03:00:45.922Z,97.86
2018-12-19T03:01:45.906Z,97.58
2018-12-19T03:02:45.895Z,97.86
2018-12-19T03:03:45.871Z,97.58
2018-12-19T03:04:45.859Z,97.77
2018-12-19T03:05:45.838Z,97.49
2018-12-19T03:06:45.821Z,97.77
2018-12-19T03:07:45.820Z,97.67
2018-12-19T03:08:45.803Z,97.72
2018-12-19T03:09:45.770Z,97.67
2018-12-19T03:10:45.758Z,97.67
2018-12-19T03:11:45.741Z,97.67
2018-12-19T03:12:45.719Z,97.86
2018-12-19T03:13:45.709Z,97.72
2018-12-19T03:14:45.687Z,97.58
2018-12-19T03:15:45.676Z,97.58
2018-12-19T03:16:45.651Z,97.96
2018-12-19T03:17:45.635Z,97.91
2018-12-19T03:18:45.632Z,97.91
2018-12-19T03:19:45.598Z,97.91
2018-12-19T03:20:45.582Z,97.67
2018-12-19T03:21:45.564Z,97.77
2018-12-19T03:22:45.548Z,97.63
2018-12-19T03:23:45.531Z,97.91
2018-12-19T03:24:45.520Z,97.82
2018-12-19T03:25:45.500Z,97.82
2018-12-19T03:26:45.483Z,97.82
2018-12-19T03:27:45.467Z,97.96
2018-12-19T03:28:45.452Z,97.82
2018-12-19T03:29:45.433Z,97.63
2018-12-19T03:30:45.422Z,98.01
2018-12-19T03:31:45.404Z,97.82
2018-12-19T03:32:45.383Z,98.01
2018-12-19T03:33:45.360Z,97.53
2018-12-19T03:34:45.353Z,98.01
2018-12-19T03:35:45.327Z,97.63
2018-12-19T03:36:45.327Z,97.53
2018-12-19T03:37:45.296Z,97.63
2018-12-19T03:38:45.280Z,97.53
2018-12-19T03:39:52.466Z,96.88
2018-12-19T03:40:45.256Z,97.44
2018-12-19T03:41:45.230Z,97.53
2018-12-19T03:42:44.971Z,97.82
2018-12-19T03:43:44.949Z,97.72
2018-12-19T03:44:45.190Z,97.82
2018-12-19T03:45:45.161Z,97.53
2018-12-19T03:46:45.144Z,97.82
2018-12-19T03:47:45.132Z,97.82
2018-12-19T03:48:45.111Z,96.97
2018-12-19T03:49:45.101Z,97.25
2018-12-19T03:50:45.075Z,97.06
2018-12-19T03:51:45.060Z,97.63
2018-12-19T03:52:45.041Z,97.63
2018-12-19T03:53:45.028Z,97.06
2018-12-19T03:54:45.010Z,97.06
2018-12-19T03:55:44.995Z,97.06
2018-12-19T03:56:44.972Z,97.16
2018-12-19T03:57:44.958Z,96.97
2018-12-19T03:58:44.940Z,97.06
2018-12-19T03:59:44.932Z,97.34
2018-12-19T04:00:44.908Z,96.97
2018-12-19T04:01:44.918Z,97.53
2018-12-19T04:02:44.873Z,96.88
2018-12-19T04:03:44.857Z,97.44
2018-12-19T04:04:44.844Z,96.78
2018-12-19T04:05:44.823Z,96.97
2018-12-19T04:06:44.808Z,97.06
2018-12-19T04:07:44.794Z,96.88
2018-12-19T04:08:44.773Z,96.88
2018-12-19T04:09:44.758Z,97.16
2018-12-19T04:10:44.751Z,96.97
2018-12-19T04:11:44.730Z,96.97
2018-12-19T04:12:44.706Z,97.34
2018-12-19T04:13:44.689Z,97.82
2018-12-19T04:14:44.672Z,96.97
2018-12-19T04:15:44.655Z,97.06
2018-12-19T04:16:44.638Z,97.06
2018-12-19T04:17:44.623Z,97.06
2018-12-19T04:18:44.621Z,97.06
2018-12-19T04:19:44.589Z,97.25
2018-12-19T04:20:44.571Z,97.16
2018-12-19T04:21:44.557Z,96.97
2018-12-19T04:22:44.544Z,97.06
2018-12-19T04:23:44.523Z,97.63
2018-12-19T04:24:44.509Z,96.78
2018-12-19T04:25:44.497Z,96.78
2018-12-19T04:26:44.470Z,97.16
2018-12-19T04:27:44.453Z,97.06
2018-12-19T04:28:44.447Z,97.06
2018-12-19T04:29:44.424Z,97.06
2018-12-19T04:30:44.407Z,97.06
2018-12-19T04:31:44.388Z,97.16
2018-12-19T04:32:44.370Z,97.06
2018-12-19T04:33:44.355Z,97.06
2018-12-19T04:34:44.339Z,97.25
2018-12-19T04:35:44.320Z,97.06
2018-12-19T04:36:44.305Z,97.06
2018-12-19T04:37:44.288Z,96.97
2018-12-19T04:38:44.270Z,97.25
2018-12-19T04:39:44.256Z,97.16
2018-12-19T04:40:44.253Z,97.16
2018-12-19T04:41:44.219Z,97.16
2018-12-19T04:42:44.205Z,97.06
2018-12-19T04:43:44.191Z,97.16
2018-12-19T04:44:44.173Z,97.06
2018-12-19T04:45:44.151Z,97.25
2018-12-19T04:46:44.147Z,96.88
2018-12-19T04:47:44.119Z,96.97
2018-12-19T04:48:44.099Z,97.34
2018-12-19T04:49:44.086Z,97.25
2018-12-19T04:50:44.067Z,97.34
2018-12-19T04:51:44.057Z,97.16
2018-12-19T04:52:44.033Z,97.44
2018-12-19T04:53:44.017Z,97.44
2018-12-19T04:54:44.004Z,97.44
2018-12-19T04:55:44.047Z,97.44
2018-12-19T04:56:43.965Z,97.06
2018-12-19T04:57:43.992Z,96.97
2018-12-19T04:58:43.932Z,96.88
2018-12-19T04:59:43.920Z,96.78
2018-12-19T05:00:43.899Z,97.06
2018-12-19T05:01:43.883Z,96.69
2018-12-19T05:02:43.867Z,96.78
2018-12-19T05:03:43.855Z,96.4
2018-12-19T05:04:43.832Z,96.4
2018-12-19T05:05:43.831Z,96.69
2018-12-19T05:06:43.822Z,96.4
2018-12-19T05:07:43.782Z,96.69
2018-12-19T05:08:43.765Z,96.69
2018-12-19T05:09:43.755Z,96.97
2018-12-19T05:10:43.739Z,96.97
2018-12-19T05:11:43.715Z,96.88
2018-12-19T05:12:43.699Z,96.97
2018-12-19T05:13:43.682Z,96.88
2018-12-19T05:14:43.734Z,96.69
2018-12-19T05:15:43.648Z,96.97
2018-12-19T05:16:43.637Z,96.97
2018-12-19T05:17:43.618Z,96.88
2018-12-19T05:18:43.598Z,96.4
2018-12-19T05:19:43.593Z,96.31
2018-12-19T05:20:43.564Z,96.69
2018-12-19T05:21:43.547Z,96.31
2018-12-19T05:22:43.534Z,96.5
2018-12-19T05:23:43.515Z,96.69
2018-12-19T05:24:43.533Z,96.31
2018-12-19T05:25:43.480Z,96.21
2018-12-19T05:26:43.465Z,96.4
2018-12-19T05:27:43.449Z,96.31
2018-12-19T05:28:43.432Z,96.31
2018-12-19T05:29:43.415Z,96.4
2018-12-19T05:30:43.398Z,96.59
2018-12-19T05:31:43.383Z,96.4
2018-12-19T05:32:43.364Z,96.4
2018-12-19T05:33:43.354Z,96.4
2018-12-19T05:34:43.333Z,96.5
2018-12-19T05:35:43.315Z,96.4
2018-12-19T05:36:43.299Z,96.59
2018-12-19T05:37:43.283Z,96.59
2018-12-19T05:38:43.268Z,96.5
2018-12-19T05:39:43.251Z,96.59
2018-12-19T05:40:43.231Z,96.69
2018-12-19T05:41:43.217Z,96.4
2018-12-19T05:42:43.199Z,96.69
2018-12-19T05:43:43.185Z,96.69
2018-12-19T05:44:43.171Z,96.4
2018-12-19T05:45:43.148Z,96.78
2018-12-19T05:46:43.132Z,96.5
2018-12-19T05:47:43.115Z,96.88
2018-12-19T05:48:43.098Z,96.88
2018-12-19T05:49:43.087Z,96.5
2018-12-19T05:50:43.069Z,96.69
2018-12-19T05:51:43.113Z,96.88
2018-12-19T05:52:43.034Z,96.97
2018-12-19T05:53:43.014Z,97.06
2018-12-19T05:54:43.001Z,96.69
2018-12-19T05:55:42.984Z,96.88
2018-12-19T05:56:42.969Z,96.97
2018-12-19T05:57:42.954Z,96.97
2018-12-19T05:58:42.932Z,96.88
2018-12-19T05:59:42.918Z,96.88
2018-12-19T06:00:42.938Z,97.16
2018-12-19T06:01:42.886Z,96.69
2018-12-19T06:02:42.869Z,96.88
2018-12-19T06:03:42.850Z,96.69
2018-12-19T06:04:42.835Z,96.69
2018-12-19T06:05:42.822Z,96.69
2018-12-19T06:06:42.798Z,96.88
2018-12-19T06:07:43.620Z,96.69
2018-12-19T06:08:42.767Z,96.88
2018-12-19T06:09:42.749Z,96.88
2018-12-19T06:10:42.743Z,96.88
2018-12-19T06:11:42.721Z,96.88
2018-12-19T06:12:42.706Z,96.69
2018-12-19T06:13:42.684Z,96.88
2018-12-19T06:14:42.669Z,96.97
2018-12-19T06:15:42.650Z,96.88
2018-12-19T06:16:42.636Z,96.88
2018-12-19T06:17:42.619Z,96.88
2018-12-19T06:18:42.605Z,96.88
2018-12-19T06:19:42.585Z,96.97
2018-12-19T06:20:42.570Z,96.97
2018-12-19T06:21:42.551Z,96.97
2018-12-19T06:22:42.540Z,96.97
2018-12-19T06:23:42.518Z,96.78
2018-12-19T06:24:42.501Z,96.88
2018-12-19T06:25:42.483Z,96.88
2018-12-19T06:26:42.470Z,96.78
2018-12-19T06:27:42.450Z,96.97
2018-12-19T06:28:42.437Z,96.97
2018-12-19T06:29:42.420Z,96.88
2018-12-19T06:30:42.401Z,96.97
2018-12-19T06:31:42.384Z,96.88
2018-12-19T06:32:42.369Z,96.69
2018-12-19T06:33:42.353Z,96.97
2018-12-19T06:34:42.336Z,96.88
2018-12-19T06:35:42.327Z,97.16
2018-12-19T06:36:42.303Z,96.97
2018-12-19T06:37:42.287Z,96.88
2018-12-19T06:38:42.269Z,97.06
2018-12-19T06:39:42.250Z,97.16
2018-12-19T06:40:42.234Z,96.97
2018-12-19T06:41:42.220Z,97.06
2018-12-19T06:42:42.202Z,97.06
2018-12-19T06:43:42.186Z,97.06
2018-12-19T06:44:42.169Z,96.97
2018-12-19T06:45:42.154Z,96.97
2018-12-19T06:46:42.135Z,96.59
2018-12-19T06:47:42.122Z,97.16
2018-12-19T06:48:42.105Z,96.69
2018-12-19T06:49:42.090Z,96.83
2018-12-19T06:50:42.071Z,96.92
2018-12-19T06:51:42.061Z,96.92
2018-12-19T06:52:42.037Z,96.69
2018-12-19T06:53:42.021Z,96.92
2018-12-19T06:54:42.002Z,96.69
2018-12-19T06:55:41.988Z,96.73
2018-12-19T06:56:41.969Z,96.73
2018-12-19T06:57:41.957Z,96.73
2018-12-19T06:58:41.936Z,96.73
2018-12-19T06:59:41.919Z,96.73
2018-12-19T07:00:41.903Z,97.02
2018-12-19T07:01:41.891Z,97.02
2018-12-19T07:02:41.874Z,96.92
2018-12-19T07:03:41.855Z,96.92
2018-12-19T07:04:41.837Z,97.02
2018-12-19T07:05:41.823Z,96.92
2018-12-19T07:06:41.806Z,97.02
2018-12-19T07:07:41.791Z,96.92
2018-12-19T07:08:41.782Z,96.92
2018-12-19T07:09:41.757Z,97.11
2018-12-19T07:10:41.789Z,97.11
2018-12-19T07:11:41.723Z,97.11
2018-12-19T07:12:41.709Z,97.2
2018-12-19T07:13:41.695Z,97.2
2018-12-19T07:14:41.680Z,97.11
2018-12-19T07:15:41.662Z,97.11
2018-12-19T07:16:45.895Z,97.02
2018-12-19T07:17:41.626Z,97.02
2018-12-19T07:18:41.612Z,97.02
2018-12-19T07:19:41.597Z,96.92
2018-12-19T07:20:41.583Z,97.02
2018-12-19T07:21:41.572Z,97.02
2018-12-19T07:22:41.549Z,97.49
2018-12-19T07:23:41.529Z,97.49
2018-12-19T07:24:41.517Z,97.49
2018-12-19T07:25:41.499Z,97.49
2018-12-19T07:26:41.481Z,97.2
2018-12-19T07:27:41.468Z,97.39
2018-12-19T07:28:41.448Z,97.3
2018-12-19T07:29:41.437Z,97.49
2018-12-19T07:30:41.419Z,97.68
2018-12-19T07:31:41.400Z,97.3
2018-12-19T07:32:41.385Z,97.68
2018-12-19T07:33:41.367Z,97.68
2018-12-19T07:34:46.725Z,97.58
2018-12-19T07:35:41.334Z,97.58
2018-12-19T07:36:41.322Z,97.68
2018-12-19T07:37:41.302Z,97.49
2018-12-19T07:38:41.290Z,97.96
2018-12-19T07:39:41.274Z,97.58
2018-12-19T07:40:45.554Z,97.49
2018-12-19T07:41:41.238Z,97.68
2018-12-19T07:42:41.228Z,97.39
2018-12-19T07:43:41.207Z,97.58
2018-12-19T07:44:41.193Z,97.68
2018-12-19T07:45:41.175Z,97.58
2018-12-19T07:46:41.158Z,97.77
2018-12-19T07:47:41.143Z,97.68
2018-12-19T07:48:41.130Z,97.77
2018-12-19T07:49:41.113Z,97.68
2018-12-19T07:50:41.093Z,97.39
2018-12-19T07:51:41.080Z,97.68
2018-12-19T07:52:41.060Z,97.68
2018-12-19T07:53:41.048Z,97.68
2018-12-19T07:54:41.034Z,97.68
2018-12-19T07:55:41.013Z,97.77
2018-12-19T07:56:40.997Z,97.68
2018-12-19T07:57:40.981Z,97.87
2018-12-19T07:58:40.968Z,97.49
2018-12-19T07:59:40.958Z,97.49
2018-12-19T08:00:40.939Z,97.58
2018-12-19T08:01:40.917Z,97.63
2018-12-19T08:02:40.908Z,97.92
2018-12-19T08:03:40.952Z,97.54
2018-12-19T08:04:40.871Z,98.01
2018-12-19T08:05:40.859Z,97.73
2018-12-19T08:06:40.843Z,97.73
2018-12-19T08:07:40.825Z,97.54
2018-12-19T08:08:40.809Z,97.44
2018-12-19T08:09:40.797Z,97.73
2018-12-19T08:10:40.777Z,97.35
2018-12-19T08:11:40.770Z,97.73
2018-12-19T08:12:40.745Z,97.63
2018-12-19T08:13:40.734Z,97.54
2018-12-19T08:14:40.714Z,97.25
2018-12-19T08:15:40.703Z,97.54
2018-12-19T08:16:40.688Z,97.54
2018-12-19T08:17:40.671Z,97.44
2018-12-19T08:18:40.652Z,97.54
2018-12-19T08:19:40.637Z,97.35
2018-12-19T08:20:40.625Z,97.16
2018-12-19T08:21:40.609Z,97.44
2018-12-19T08:22:40.605Z,97.44
2018-12-19T08:23:40.576Z,97.35
2018-12-19T08:24:40.567Z,97.54
2018-12-19T08:25:40.543Z,97.25
2018-12-19T08:26:40.527Z,97.16
2018-12-19T08:27:40.516Z,97.44
2018-12-19T08:28:40.498Z,97.35
2018-12-19T08:29:40.483Z,97.06
2018-12-19T08:30:40.719Z,97.25
2018-12-19T08:31:40.457Z,97.06
2018-12-19T08:32:40.438Z,97.06
2018-12-19T08:33:40.421Z,97.06
2018-12-19T08:34:40.408Z,97.25
2018-12-19T08:35:40.393Z,97.06
2018-12-19T08:36:40.376Z,96.78
2018-12-19T08:37:40.362Z,96.97
2018-12-19T08:38:40.349Z,96.78
2018-12-19T08:39:40.333Z,96.59
2018-12-19T08:40:40.316Z,96.5
2018-12-19T08:41:40.302Z,96.59
2018-12-19T08:42:40.285Z,96.59
2018-12-19T08:43:40.270Z,96.59
2018-12-19T08:44:40.258Z,96.59
2018-12-19T08:45:40.243Z,96.59
2018-12-19T08:46:40.232Z,96.4
2018-12-19T08:47:40.209Z,96.4
2018-12-19T08:48:40.195Z,96.4
2018-12-19T08:49:40.179Z,96.4
2018-12-19T08:50:40.167Z,96.5
2018-12-19T08:51:40.149Z,96.4
2018-12-19T08:52:40.134Z,96.31
2018-12-19T08:53:40.119Z,96.31
2018-12-19T08:54:40.103Z,96.4
2018-12-19T08:55:40.091Z,96.36
2018-12-19T08:56:40.074Z,95.69
2018-12-19T08:57:40.062Z,95.93
2018-12-19T08:58:40.046Z,96.02
2018-12-19T08:59:40.035Z,95.88
2018-12-19T09:00:40.013Z,95.69
2018-12-19T09:01:39.996Z,95.88
2018-12-19T09:02:40.044Z,96.07
2018-12-19T09:03:39.969Z,95.88
2018-12-19T09:04:39.953Z,95.98
2018-12-19T09:05:39.937Z,95.98
2018-12-19T09:06:39.927Z,95.31
2018-12-19T09:07:39.911Z,95.5
2018-12-19T09:08:39.893Z,95.5
2018-12-19T09:09:39.884Z,95.5
2018-12-19T09:10:39.863Z,95.79
2018-12-19T09:11:39.860Z,95.69
2018-12-19T09:12:39.834Z,94.93
2018-12-19T09:13:39.820Z,94.93
2018-12-19T09:14:39.805Z,94.74
2018-12-19T09:15:39.790Z,95.69
2018-12-19T09:16:39.774Z,95.79
2018-12-19T09:17:39.765Z,94.74
2018-12-19T09:18:39.743Z,95.6
2018-12-19T09:19:39.733Z,94.74
2018-12-19T09:20:39.716Z,95.03
2018-12-19T09:21:39.699Z,95.22
2018-12-19T09:22:39.685Z,95.22
2018-12-19T09:23:39.672Z,95.03
2018-12-19T09:24:39.654Z,95.12
2018-12-19T09:25:39.639Z,95.12
2018-12-19T09:26:39.630Z,95.12
2018-12-19T09:27:39.612Z,95.31
2018-12-19T09:28:39.599Z,95.22
2018-12-19T09:29:39.587Z,95.69
2018-12-19T09:30:39.565Z,95.12
2018-12-19T09:31:39.551Z,95.31
2018-12-19T09:32:39.536Z,95.03
2018-12-19T09:33:39.527Z,95.22
2018-12-19T09:34:39.507Z,95.5
2018-12-19T09:35:39.496Z,95.12
2018-12-19T09:36:39.476Z,95.12
2018-12-19T09:37:39.460Z,95.12
2018-12-19T09:38:40.913Z,95.31
2018-12-19T09:39:39.432Z,95.31
2018-12-19T09:40:39.419Z,95.12
2018-12-19T09:41:39.418Z,95.03
2018-12-19T09:42:39.390Z,95.12
2018-12-19T09:43:39.373Z,95.31
2018-12-19T09:44:39.358Z,95.41
2018-12-19T09:45:39.344Z,95.31
2018-12-19T09:46:39.333Z,95.6
2018-12-19T09:47:39.315Z,96.07
2018-12-19T09:48:39.305Z,96.07
2018-12-19T09:49:39.535Z,95.5
2018-12-19T09:50:39.270Z,95.5
2018-12-19T09:51:39.256Z,95.5
2018-12-19T09:52:39.249Z,95.22
2018-12-19T09:53:39.224Z,95.41
2018-12-19T09:54:39.210Z,95.22
2018-12-19T09:55:39.196Z,95.31
2018-12-19T09:56:39.181Z,95.41
2018-12-19T09:57:39.166Z,95.31
2018-12-19T09:58:39.164Z,95.31
2018-12-19T09:59:39.140Z,95.5
2018-12-19T10:00:39.124Z,95.31
2018-12-19T10:01:39.111Z,95.12
2018-12-19T10:02:39.833Z,95.12
2018-12-19T10:03:39.079Z,95.88
2018-12-19T10:04:39.065Z,95.31
2018-12-19T10:05:39.053Z,95.12
2018-12-19T10:06:39.039Z,95.5
2018-12-19T10:07:39.019Z,95.69
2018-12-19T10:08:39.005Z,95.31
2018-12-19T10:09:38.993Z,95.12
2018-12-19T10:10:38.975Z,96.07
2018-12-19T10:11:38.963Z,96.03
2018-12-19T10:12:38.948Z,95.69
2018-12-19T10:13:38.932Z,96.31
2018-12-19T10:14:38.918Z,95.36
2018-12-19T10:15:38.907Z,95.36
2018-12-19T10:16:38.891Z,95.93
2018-12-19T10:17:43.424Z,95.74
2018-12-19T10:18:38.860Z,95.93
2018-12-19T10:19:38.851Z,95.45
2018-12-19T10:20:39.084Z,95.45
2018-12-19T10:21:38.818Z,96.12
2018-12-19T10:22:38.804Z,95.36
2018-12-19T10:23:38.790Z,95.36
2018-12-19T10:24:38.778Z,96.03
2018-12-19T10:25:38.761Z,96.22
2018-12-19T10:26:38.745Z,95.93
2018-12-19T10:27:38.734Z,96.12
2018-12-19T10:28:38.722Z,95.45
2018-12-19T10:29:38.704Z,95.65
2018-12-19T10:30:38.689Z,95.88
2018-12-19T10:31:38.675Z,96.08
2018-12-19T10:32:38.660Z,96.17
2018-12-19T10:33:38.646Z,96.55
2018-12-19T10:34:38.639Z,96.36
2018-12-19T10:35:38.622Z,96.45
2018-12-19T10:36:38.605Z,96.36
2018-12-19T10:37:38.592Z,96.64
2018-12-19T10:38:38.584Z,96.55
2018-12-19T10:39:38.565Z,96.36
2018-12-19T10:40:38.549Z,97.02
2018-12-19T10:41:38.537Z,96.45
2018-12-19T10:42:38.524Z,96.45
2018-12-19T10:43:38.508Z,96.26
2018-12-19T10:44:38.497Z,96.36
2018-12-19T10:45:38.484Z,96.64
2018-12-19T10:46:38.513Z,96.64
2018-12-19T10:47:38.457Z,96.64
2018-12-19T10:48:38.440Z,96.73
2018-12-19T10:49:38.451Z,97.12
2018-12-19T10:50:38.413Z,96.73
2018-12-19T10:51:38.400Z,96.73
2018-12-19T10:52:38.386Z,96.83
2018-12-19T10:53:38.378Z,96.92
2018-12-19T10:54:38.359Z,96.64
2018-12-19T10:55:38.345Z,96.73
2018-12-19T10:56:38.333Z,96.64
2018-12-19T10:57:38.321Z,96.64
2018-12-19T10:58:38.304Z,96.64
2018-12-19T10:59:38.301Z,96.64
2018-12-19T11:00:38.281Z,96.73
2018-12-19T11:01:38.265Z,96.92
2018-12-19T11:02:38.257Z,96.92
2018-12-19T11:03:38.237Z,97.4
2018-12-19T11:04:38.226Z,96.55
2018-12-19T11:05:38.214Z,96.88
2018-12-19T11:06:38.198Z,96.83
2018-12-19T11:07:38.188Z,96.97
2018-12-19T11:08:38.176Z,96.83
2018-12-19T11:09:38.157Z,96.69
2018-12-19T11:10:38.154Z,97.4
2018-12-19T11:11:38.134Z,97.36
2018-12-19T11:12:38.118Z,97.45
2018-12-19T11:13:38.104Z,97.64
2018-12-19T11:14:38.096Z,97.74
2018-12-19T11:15:38.085Z,97.55
2018-12-19T11:16:38.068Z,97.64
2018-12-19T11:17:38.058Z,97.17
2018-12-19T11:18:38.038Z,97.55
2018-12-19T11:19:38.031Z,97.26
2018-12-19T11:20:38.011Z,97.64
2018-12-19T11:21:37.999Z,97.26
2018-12-19T11:22:37.983Z,97.55
2018-12-19T11:23:37.969Z,97.36
2018-12-19T11:24:37.965Z,97.17
2018-12-19T11:25:37.947Z,97.36
2018-12-19T11:26:37.933Z,97.17
2018-12-19T11:27:37.922Z,97.36
2018-12-19T11:28:37.910Z,97.36
2018-12-19T11:29:37.908Z,98.02
2018-12-19T11:30:37.879Z,97.36
2018-12-19T11:31:37.869Z,97.74
2018-12-19T11:32:37.858Z,97.74
2018-12-19T11:33:37.841Z,97.45
2018-12-19T11:34:37.825Z,97.17
2018-12-19T11:35:37.812Z,97.64
2018-12-19T11:36:37.801Z,97.45
2018-12-19T11:37:37.790Z,97.64
2018-12-19T11:38:37.772Z,97.64
2018-12-19T11:39:37.762Z,97.36
2018-12-19T11:40:37.751Z,97.36
2018-12-19T11:41:41.495Z,97.36
2018-12-19T11:42:37.722Z,97.59
2018-12-19T11:43:37.707Z,97.88
2018-12-19T11:44:37.693Z,98.07
2018-12-19T11:45:37.681Z,97.88
2018-12-19T11:46:37.727Z,98.11
2018-12-19T11:47:37.653Z,97.92
2018-12-19T11:48:37.680Z,97.55
2018-12-19T11:49:37.664Z,97.64
2018-12-19T11:50:37.614Z,97.64
2018-12-19T11:51:37.601Z,97.55
2018-12-19T11:52:37.588Z,97.36
2018-12-19T11:53:37.573Z,97.36
2018-12-19T11:54:37.564Z,97.74
2018-12-19T11:55:37.549Z,97.17
2018-12-19T11:56:37.532Z,97.55
2018-12-19T11:57:37.521Z,97.92
2018-12-19T11:58:37.507Z,97.92
2018-12-19T11:59:37.491Z,97.55
2018-12-19T12:00:37.481Z,97.64
2018-12-19T12:01:43.726Z,97.36
2018-12-19T12:02:37.457Z,97.17
2018-12-19T12:03:37.447Z,97.45
2018-12-19T12:04:37.429Z,97.92
2018-12-19T12:05:37.411Z,97.64
2018-12-19T12:06:37.401Z,97.55
2018-12-19T12:07:37.390Z,97.36
2018-12-19T12:08:37.373Z,97.64
2018-12-19T12:09:37.363Z,97.64
2018-12-19T12:10:37.347Z,97.36
2018-12-19T12:11:37.332Z,97.64
2018-12-19T12:12:37.322Z,97.83
2018-12-19T12:13:37.316Z,97.64
2018-12-19T12:14:37.295Z,97.74
2018-12-19T12:15:37.282Z,97.36
2018-12-19T12:16:37.267Z,96.97
2018-12-19T12:17:37.257Z,97.36
2018-12-19T12:18:37.241Z,97.92
2018-12-19T12:19:37.227Z,97.55
2018-12-19T12:20:37.216Z,97.64
2018-12-19T12:21:37.205Z,97.45
2018-12-19T12:22:37.187Z,97.55
2018-12-19T12:23:37.246Z,97.74
2018-12-19T12:24:37.170Z,97.64
2018-12-19T12:25:37.400Z,97.36
2018-12-19T12:26:37.136Z,97.64
2018-12-19T12:27:37.125Z,97.45
2018-12-19T12:28:37.110Z,97.36
2018-12-19T12:29:37.100Z,97.07
2018-12-19T12:30:37.085Z,97.02
2018-12-19T12:31:37.071Z,97.02
2018-12-19T12:32:37.058Z,96.45
2018-12-19T12:33:37.045Z,96.55
2018-12-19T12:34:37.033Z,96.17
2018-12-19T12:35:37.020Z,96.83
2018-12-19T12:36:37.009Z,96.93
2018-12-19T12:37:36.995Z,97.12
2018-12-19T12:38:36.984Z,97.22
2018-12-19T12:39:36.978Z,96.64
2018-12-19T12:40:36.957Z,96.45
2018-12-19T12:41:36.952Z,96.45
2018-12-19T12:42:36.935Z,96.74
2018-12-19T12:43:36.919Z,96.83
2018-12-19T12:45:36.892Z,97.41
2018-12-19T12:46:36.878Z,96.93
2018-12-19T12:47:36.869Z,97.12
2018-12-19T12:48:36.855Z,97.02
2018-12-19T12:49:36.844Z,97.02
2018-12-19T12:50:36.828Z,96.5
2018-12-19T12:51:36.822Z,97.02
2018-12-19T12:52:36.803Z,96.55
2018-12-19T12:53:36.791Z,96.93
2018-12-19T12:54:36.780Z,96.45
2018-12-19T12:55:36.767Z,96.45